sensor_id;sensor_type;location;lat;lon;timestamp;P1;durP1;ratioP1;P2;durP2;ratioP2
6217;SDS011;3142;48.206;11.550;2023-12-07T00:00:54;13.30;;;9.53;;
6217;SDS011;3142;48.206;11.550;2023-12-07T00:03:22;13.30;;;9.60;;
6217;SDS011;3142;48.206;11.550;2023-12-07T00:05:48;12.63;;;9.63;;
6217;SDS011;3142;48.206;11.550;2023-12-07T00:08:15;12.20;;;10.17;;
6217;SDS011;3142;48.206;11.550;2023-12-07T00:10:40;11.67;;;9.90;;
6217;SDS011;3142;48.206;11.550;2023-12-07T00:13:07;13.77;;;9.73;;
6217;SDS011;3142;48.206;11.550;2023-12-07T00:15:33;13.10;;;9.60;;
6217;SDS011;3142;48.206;11.550;2023-12-07T00:18:00;12.33;;;9.63;;
6217;SDS011;3142;48.206;11.550;2023-12-07T00:20:29;12.67;;;9.57;;
6217;SDS011;3142;48.206;11.550;2023-12-07T00:22:55;45.73;;;31.00;;
6217;SDS011;3142;48.206;11.550;2023-12-07T00:25:22;58.53;;;35.60;;
6217;SDS011;3142;48.206;11.550;2023-12-07T00:27:48;22.37;;;14.80;;
6217;SDS011;3142;48.206;11.550;2023-12-07T00:30:15;15.13;;;10.13;;
6217;SDS011;3142;48.206;11.550;2023-12-07T00:32:42;16.00;;;10.43;;
6217;SDS011;3142;48.206;11.550;2023-12-07T00:35:09;16.00;;;10.07;;
6217;SDS011;3142;48.206;11.550;2023-12-07T00:37:37;12.60;;;9.80;;
6217;SDS011;3142;48.206;11.550;2023-12-07T00:40:03;14.10;;;10.10;;
6217;SDS011;3142;48.206;11.550;2023-12-07T00:42:31;11.30;;;9.33;;
6217;SDS011;3142;48.206;11.550;2023-12-07T00:44:57;15.43;;;11.07;;
6217;SDS011;3142;48.206;11.550;2023-12-07T00:47:23;13.33;;;9.97;;
6217;SDS011;3142;48.206;11.550;2023-12-07T00:49:50;15.40;;;10.90;;
6217;SDS011;3142;48.206;11.550;2023-12-07T00:52:16;15.13;;;10.73;;
6217;SDS011;3142;48.206;11.550;2023-12-07T00:54:44;13.73;;;10.67;;
6217;SDS011;3142;48.206;11.550;2023-12-07T00:57:10;12.57;;;10.27;;
6217;SDS011;3142;48.206;11.550;2023-12-07T00:59:37;13.87;;;10.20;;
6217;SDS011;3142;48.206;11.550;2023-12-07T01:02:03;13.83;;;10.37;;
6217;SDS011;3142;48.206;11.550;2023-12-07T01:04:30;13.80;;;10.70;;
6217;SDS011;3142;48.206;11.550;2023-12-07T01:06:57;14.27;;;10.30;;
6217;SDS011;3142;48.206;11.550;2023-12-07T01:09:23;15.40;;;11.37;;
6217;SDS011;3142;48.206;11.550;2023-12-07T01:11:51;13.43;;;10.03;;
6217;SDS011;3142;48.206;11.550;2023-12-07T01:14:18;13.23;;;10.27;;
6217;SDS011;3142;48.206;11.550;2023-12-07T01:16:45;12.97;;;9.37;;
6217;SDS011;3142;48.206;11.550;2023-12-07T01:19:11;14.97;;;10.60;;
6217;SDS011;3142;48.206;11.550;2023-12-07T01:21:39;13.30;;;10.73;;
6217;SDS011;3142;48.206;11.550;2023-12-07T01:24:05;14.23;;;10.83;;
6217;SDS011;3142;48.206;11.550;2023-12-07T01:26:32;13.30;;;11.13;;
6217;SDS011;3142;48.206;11.550;2023-12-07T01:29:00;12.67;;;10.00;;
6217;SDS011;3142;48.206;11.550;2023-12-07T01:31:26;15.53;;;10.73;;
6217;SDS011;3142;48.206;11.550;2023-12-07T01:33:53;14.40;;;10.10;;
6217;SDS011;3142;48.206;11.550;2023-12-07T01:36:19;13.93;;;10.37;;
6217;SDS011;3142;48.206;11.550;2023-12-07T01:38:45;17.07;;;11.27;;
6217;SDS011;3142;48.206;11.550;2023-12-07T01:41:12;13.23;;;11.47;;
6217;SDS011;3142;48.206;11.550;2023-12-07T01:43:44;14.13;;;11.07;;
6217;SDS011;3142;48.206;11.550;2023-12-07T01:46:12;13.77;;;11.50;;
6217;SDS011;3142;48.206;11.550;2023-12-07T01:48:40;13.20;;;10.80;;
6217;SDS011;3142;48.206;11.550;2023-12-07T01:51:07;16.47;;;12.30;;
6217;SDS011;3142;48.206;11.550;2023-12-07T01:53:34;16.10;;;11.33;;
6217;SDS011;3142;48.206;11.550;2023-12-07T01:56:01;13.90;;;11.27;;
6217;SDS011;3142;48.206;11.550;2023-12-07T01:58:28;15.30;;;11.50;;
6217;SDS011;3142;48.206;11.550;2023-12-07T02:00:56;14.63;;;11.57;;
6217;SDS011;3142;48.206;11.550;2023-12-07T02:03:24;15.33;;;11.53;;
6217;SDS011;3142;48.206;11.550;2023-12-07T02:05:55;15.50;;;10.93;;
6217;SDS011;3142;48.206;11.550;2023-12-07T02:08:22;15.10;;;11.47;;
6217;SDS011;3142;48.206;11.550;2023-12-07T02:10:48;16.93;;;12.23;;
6217;SDS011;3142;48.206;11.550;2023-12-07T02:13:16;15.00;;;11.83;;
6217;SDS011;3142;48.206;11.550;2023-12-07T02:15:43;14.97;;;11.57;;
6217;SDS011;3142;48.206;11.550;2023-12-07T02:18:10;16.27;;;12.37;;
6217;SDS011;3142;48.206;11.550;2023-12-07T02:20:44;15.00;;;11.87;;
6217;SDS011;3142;48.206;11.550;2023-12-07T02:23:14;16.40;;;12.43;;
6217;SDS011;3142;48.206;11.550;2023-12-07T02:25:44;15.47;;;11.33;;
6217;SDS011;3142;48.206;11.550;2023-12-07T02:28:18;14.33;;;11.40;;
6217;SDS011;3142;48.206;11.550;2023-12-07T02:30:45;15.57;;;11.47;;
6217;SDS011;3142;48.206;11.550;2023-12-07T02:33:11;16.23;;;11.93;;
6217;SDS011;3142;48.206;11.550;2023-12-07T02:35:39;13.33;;;10.97;;
6217;SDS011;3142;48.206;11.550;2023-12-07T02:38:07;17.50;;;12.97;;
6217;SDS011;3142;48.206;11.550;2023-12-07T02:40:34;15.03;;;11.17;;
6217;SDS011;3142;48.206;11.550;2023-12-07T02:43:01;15.63;;;11.80;;
6217;SDS011;3142;48.206;11.550;2023-12-07T02:45:31;16.27;;;11.90;;
6217;SDS011;3142;48.206;11.550;2023-12-07T02:47:58;15.90;;;12.03;;
6217;SDS011;3142;48.206;11.550;2023-12-07T02:50:24;14.97;;;11.00;;
6217;SDS011;3142;48.206;11.550;2023-12-07T02:52:51;14.83;;;10.90;;
6217;SDS011;3142;48.206;11.550;2023-12-07T02:55:17;16.07;;;11.40;;
6217;SDS011;3142;48.206;11.550;2023-12-07T02:57:44;13.97;;;10.87;;
6217;SDS011;3142;48.206;11.550;2023-12-07T03:00:12;16.37;;;11.20;;
6217;SDS011;3142;48.206;11.550;2023-12-07T03:02:40;14.27;;;11.43;;
6217;SDS011;3142;48.206;11.550;2023-12-07T03:05:07;14.13;;;10.83;;
6217;SDS011;3142;48.206;11.550;2023-12-07T03:07:34;14.27;;;11.03;;
6217;SDS011;3142;48.206;11.550;2023-12-07T03:10:01;13.37;;;10.43;;
6217;SDS011;3142;48.206;11.550;2023-12-07T03:12:29;14.90;;;10.67;;
6217;SDS011;3142;48.206;11.550;2023-12-07T03:14:55;14.60;;;10.47;;
6217;SDS011;3142;48.206;11.550;2023-12-07T03:17:22;14.83;;;10.97;;
6217;SDS011;3142;48.206;11.550;2023-12-07T03:19:50;13.90;;;9.90;;
6217;SDS011;3142;48.206;11.550;2023-12-07T03:22:16;16.20;;;11.17;;
6217;SDS011;3142;48.206;11.550;2023-12-07T03:24:45;13.60;;;10.07;;
6217;SDS011;3142;48.206;11.550;2023-12-07T03:27:12;14.03;;;9.90;;
6217;SDS011;3142;48.206;11.550;2023-12-07T03:29:39;13.60;;;10.57;;
6217;SDS011;3142;48.206;11.550;2023-12-07T03:32:05;11.83;;;9.47;;
6217;SDS011;3142;48.206;11.550;2023-12-07T03:34:32;13.70;;;9.83;;
6217;SDS011;3142;48.206;11.550;2023-12-07T03:37:00;12.30;;;9.33;;
6217;SDS011;3142;48.206;11.550;2023-12-07T03:39:26;13.77;;;9.97;;
6217;SDS011;3142;48.206;11.550;2023-12-07T03:41:54;14.83;;;10.33;;
6217;SDS011;3142;48.206;11.550;2023-12-07T03:44:21;11.57;;;8.87;;
6217;SDS011;3142;48.206;11.550;2023-12-07T03:46:47;14.23;;;9.40;;
6217;SDS011;3142;48.206;11.550;2023-12-07T03:49:13;12.03;;;8.93;;
6217;SDS011;3142;48.206;11.550;2023-12-07T03:51:40;13.23;;;9.13;;
6217;SDS011;3142;48.206;11.550;2023-12-07T03:54:08;11.63;;;9.20;;
6217;SDS011;3142;48.206;11.550;2023-12-07T03:56:34;13.50;;;8.87;;
6217;SDS011;3142;48.206;11.550;2023-12-07T03:59:01;13.13;;;9.07;;
6217;SDS011;3142;48.206;11.550;2023-12-07T04:01:28;11.53;;;8.70;;
6217;SDS011;3142;48.206;11.550;2023-12-07T04:03:56;11.43;;;8.50;;
6217;SDS011;3142;48.206;11.550;2023-12-07T04:06:23;11.80;;;8.87;;
6217;SDS011;3142;48.206;11.550;2023-12-07T04:08:50;11.97;;;9.13;;
6217;SDS011;3142;48.206;11.550;2023-12-07T04:11:18;13.07;;;8.53;;
6217;SDS011;3142;48.206;11.550;2023-12-07T04:13:45;12.40;;;8.97;;
6217;SDS011;3142;48.206;11.550;2023-12-07T04:16:11;11.83;;;8.77;;
6217;SDS011;3142;48.206;11.550;2023-12-07T04:18:38;12.77;;;9.60;;
6217;SDS011;3142;48.206;11.550;2023-12-07T04:21:04;11.23;;;8.77;;
6217;SDS011;3142;48.206;11.550;2023-12-07T04:23:31;14.53;;;9.37;;
6217;SDS011;3142;48.206;11.550;2023-12-07T04:25:57;14.03;;;9.00;;
6217;SDS011;3142;48.206;11.550;2023-12-07T04:28:25;11.77;;;9.17;;
6217;SDS011;3142;48.206;11.550;2023-12-07T04:30:52;11.73;;;9.37;;
6217;SDS011;3142;48.206;11.550;2023-12-07T04:33:18;13.10;;;9.60;;
6217;SDS011;3142;48.206;11.550;2023-12-07T04:35:45;11.13;;;8.90;;
6217;SDS011;3142;48.206;11.550;2023-12-07T04:38:12;14.40;;;9.63;;
6217;SDS011;3142;48.206;11.550;2023-12-07T04:40:38;12.43;;;9.07;;
6217;SDS011;3142;48.206;11.550;2023-12-07T04:43:06;13.50;;;9.27;;
6217;SDS011;3142;48.206;11.550;2023-12-07T04:45:34;12.63;;;9.80;;
6217;SDS011;3142;48.206;11.550;2023-12-07T04:48:01;13.20;;;9.67;;
6217;SDS011;3142;48.206;11.550;2023-12-07T04:50:28;15.83;;;10.37;;
6217;SDS011;3142;48.206;11.550;2023-12-07T04:52:55;14.30;;;9.93;;
6217;SDS011;3142;48.206;11.550;2023-12-07T04:55:22;13.17;;;9.50;;
6217;SDS011;3142;48.206;11.550;2023-12-07T04:57:48;13.33;;;9.60;;
6217;SDS011;3142;48.206;11.550;2023-12-07T05:00:15;13.47;;;10.20;;
6217;SDS011;3142;48.206;11.550;2023-12-07T05:02:44;14.00;;;9.67;;
6217;SDS011;3142;48.206;11.550;2023-12-07T05:05:10;13.37;;;9.43;;
6217;SDS011;3142;48.206;11.550;2023-12-07T05:07:36;13.57;;;9.63;;
6217;SDS011;3142;48.206;11.550;2023-12-07T05:10:03;14.87;;;9.80;;
6217;SDS011;3142;48.206;11.550;2023-12-07T05:12:31;14.13;;;9.60;;
6217;SDS011;3142;48.206;11.550;2023-12-07T05:14:57;14.13;;;9.50;;
6217;SDS011;3142;48.206;11.550;2023-12-07T05:17:24;13.50;;;9.87;;
6217;SDS011;3142;48.206;11.550;2023-12-07T05:19:52;13.67;;;8.73;;
6217;SDS011;3142;48.206;11.550;2023-12-07T05:22:18;13.07;;;8.80;;
6217;SDS011;3142;48.206;11.550;2023-12-07T05:24:46;14.30;;;8.90;;
6217;SDS011;3142;48.206;11.550;2023-12-07T05:27:13;12.63;;;8.87;;
6217;SDS011;3142;48.206;11.550;2023-12-07T05:29:40;11.90;;;9.00;;
6217;SDS011;3142;48.206;11.550;2023-12-07T05:32:06;12.10;;;8.80;;
6217;SDS011;3142;48.206;11.550;2023-12-07T05:34:33;11.73;;;8.67;;
6217;SDS011;3142;48.206;11.550;2023-12-07T05:37:01;12.77;;;8.90;;
6217;SDS011;3142;48.206;11.550;2023-12-07T05:39:29;10.60;;;8.63;;
6217;SDS011;3142;48.206;11.550;2023-12-07T05:41:55;12.33;;;9.30;;
6217;SDS011;3142;48.206;11.550;2023-12-07T05:44:22;10.53;;;8.23;;
6217;SDS011;3142;48.206;11.550;2023-12-07T05:46:48;12.20;;;9.03;;
6217;SDS011;3142;48.206;11.550;2023-12-07T05:49:15;12.87;;;8.37;;
6217;SDS011;3142;48.206;11.550;2023-12-07T05:51:41;14.43;;;9.57;;
6217;SDS011;3142;48.206;11.550;2023-12-07T05:54:09;13.03;;;8.83;;
6217;SDS011;3142;48.206;11.550;2023-12-07T05:56:36;12.77;;;8.77;;
6217;SDS011;3142;48.206;11.550;2023-12-07T05:59:02;11.30;;;8.70;;
6217;SDS011;3142;48.206;11.550;2023-12-07T06:01:29;13.23;;;8.67;;
6217;SDS011;3142;48.206;11.550;2023-12-07T06:03:55;13.23;;;9.00;;
6217;SDS011;3142;48.206;11.550;2023-12-07T06:06:22;12.20;;;8.83;;
6217;SDS011;3142;48.206;11.550;2023-12-07T06:08:48;13.13;;;8.50;;
6217;SDS011;3142;48.206;11.550;2023-12-07T06:11:16;14.97;;;8.97;;
6217;SDS011;3142;48.206;11.550;2023-12-07T06:13:42;11.97;;;8.13;;
6217;SDS011;3142;48.206;11.550;2023-12-07T06:16:11;10.90;;;8.13;;
6217;SDS011;3142;48.206;11.550;2023-12-07T06:18:39;13.40;;;9.37;;
6217;SDS011;3142;48.206;11.550;2023-12-07T06:21:06;12.37;;;8.57;;
6217;SDS011;3142;48.206;11.550;2023-12-07T06:23:32;10.17;;;7.90;;
6217;SDS011;3142;48.206;11.550;2023-12-07T06:25:59;10.97;;;7.40;;
6217;SDS011;3142;48.206;11.550;2023-12-07T06:28:28;9.20;;;7.73;;
6217;SDS011;3142;48.206;11.550;2023-12-07T06:30:57;11.90;;;8.23;;
6217;SDS011;3142;48.206;11.550;2023-12-07T06:33:23;11.73;;;8.03;;
6217;SDS011;3142;48.206;11.550;2023-12-07T06:35:50;11.77;;;8.10;;
6217;SDS011;3142;48.206;11.550;2023-12-07T06:38:16;9.77;;;7.03;;
6217;SDS011;3142;48.206;11.550;2023-12-07T06:40:43;12.97;;;8.47;;
6217;SDS011;3142;48.206;11.550;2023-12-07T06:43:09;10.87;;;7.50;;
6217;SDS011;3142;48.206;11.550;2023-12-07T06:45:37;11.37;;;8.90;;
6217;SDS011;3142;48.206;11.550;2023-12-07T06:48:04;10.93;;;7.70;;
6217;SDS011;3142;48.206;11.550;2023-12-07T06:50:31;12.77;;;8.50;;
6217;SDS011;3142;48.206;11.550;2023-12-07T06:52:57;12.70;;;8.03;;
6217;SDS011;3142;48.206;11.550;2023-12-07T06:55:24;11.40;;;8.53;;
6217;SDS011;3142;48.206;11.550;2023-12-07T06:57:50;14.77;;;8.47;;
6217;SDS011;3142;48.206;11.550;2023-12-07T07:00:17;12.47;;;8.33;;
6217;SDS011;3142;48.206;11.550;2023-12-07T07:02:46;13.97;;;9.07;;
6217;SDS011;3142;48.206;11.550;2023-12-07T07:05:13;12.37;;;7.87;;
6217;SDS011;3142;48.206;11.550;2023-12-07T07:07:39;11.30;;;7.73;;
6217;SDS011;3142;48.206;11.550;2023-12-07T07:10:06;12.33;;;7.70;;
6217;SDS011;3142;48.206;11.550;2023-12-07T07:12:34;12.87;;;7.60;;
6217;SDS011;3142;48.206;11.550;2023-12-07T07:15:01;11.17;;;7.37;;
6217;SDS011;3142;48.206;11.550;2023-12-07T07:17:28;14.30;;;8.60;;
6217;SDS011;3142;48.206;11.550;2023-12-07T07:19:56;13.80;;;8.87;;
6217;SDS011;3142;48.206;11.550;2023-12-07T07:22:22;12.30;;;8.07;;
6217;SDS011;3142;48.206;11.550;2023-12-07T07:24:49;12.07;;;7.47;;
6217;SDS011;3142;48.206;11.550;2023-12-07T07:27:15;14.70;;;7.17;;
6217;SDS011;3142;48.206;11.550;2023-12-07T07:29:42;11.50;;;7.00;;
6217;SDS011;3142;48.206;11.550;2023-12-07T07:32:08;15.93;;;7.73;;
6217;SDS011;3142;48.206;11.550;2023-12-07T07:34:35;12.77;;;7.17;;
6217;SDS011;3142;48.206;11.550;2023-12-07T07:37:03;10.73;;;7.60;;
6217;SDS011;3142;48.206;11.550;2023-12-07T07:39:30;14.93;;;7.77;;
6217;SDS011;3142;48.206;11.550;2023-12-07T07:41:56;12.87;;;8.53;;
6217;SDS011;3142;48.206;11.550;2023-12-07T07:44:23;10.87;;;8.07;;
6217;SDS011;3142;48.206;11.550;2023-12-07T07:46:49;13.60;;;9.00;;
6217;SDS011;3142;48.206;11.550;2023-12-07T07:49:16;11.67;;;8.47;;
6217;SDS011;3142;48.206;11.550;2023-12-07T07:51:42;13.23;;;8.73;;
6217;SDS011;3142;48.206;11.550;2023-12-07T07:54:10;10.93;;;8.47;;
6217;SDS011;3142;48.206;11.550;2023-12-07T07:56:36;13.63;;;10.27;;
6217;SDS011;3142;48.206;11.550;2023-12-07T07:59:03;16.93;;;9.03;;
6217;SDS011;3142;48.206;11.550;2023-12-07T08:01:29;12.87;;;9.30;;
6217;SDS011;3142;48.206;11.550;2023-12-07T08:03:56;15.80;;;9.50;;
6217;SDS011;3142;48.206;11.550;2023-12-07T08:06:22;15.17;;;9.73;;
6217;SDS011;3142;48.206;11.550;2023-12-07T08:08:49;13.57;;;8.33;;
6217;SDS011;3142;48.206;11.550;2023-12-07T08:11:17;13.10;;;9.77;;
6217;SDS011;3142;48.206;11.550;2023-12-07T08:13:43;15.70;;;10.80;;
6217;SDS011;3142;48.206;11.550;2023-12-07T08:16:10;15.00;;;11.03;;
6217;SDS011;3142;48.206;11.550;2023-12-07T08:18:36;13.80;;;10.70;;
6217;SDS011;3142;48.206;11.550;2023-12-07T08:21:03;13.50;;;9.80;;
6217;SDS011;3142;48.206;11.550;2023-12-07T08:23:33;12.90;;;10.13;;
6217;SDS011;3142;48.206;11.550;2023-12-07T08:25:59;16.47;;;8.97;;
6217;SDS011;3142;48.206;11.550;2023-12-07T08:28:28;12.70;;;9.40;;
6217;SDS011;3142;48.206;11.550;2023-12-07T08:30:54;13.13;;;9.30;;
6217;SDS011;3142;48.206;11.550;2023-12-07T08:33:21;12.33;;;9.37;;
6217;SDS011;3142;48.206;11.550;2023-12-07T08:35:47;14.40;;;10.03;;
6217;SDS011;3142;48.206;11.550;2023-12-07T08:38:19;13.70;;;9.10;;
6217;SDS011;3142;48.206;11.550;2023-12-07T08:40:47;13.83;;;9.70;;
6217;SDS011;3142;48.206;11.550;2023-12-07T08:43:13;12.70;;;9.50;;
6217;SDS011;3142;48.206;11.550;2023-12-07T08:45:41;12.40;;;8.97;;
6217;SDS011;3142;48.206;11.550;2023-12-07T08:48:07;17.50;;;9.47;;
6217;SDS011;3142;48.206;11.550;2023-12-07T08:50:34;14.33;;;8.87;;
6217;SDS011;3142;48.206;11.550;2023-12-07T08:53:00;12.77;;;8.47;;
6217;SDS011;3142;48.206;11.550;2023-12-07T08:55:28;11.17;;;8.13;;
6217;SDS011;3142;48.206;11.550;2023-12-07T08:57:54;16.87;;;8.90;;
6217;SDS011;3142;48.206;11.550;2023-12-07T09:00:21;13.23;;;9.63;;
6217;SDS011;3142;48.206;11.550;2023-12-07T09:02:51;12.40;;;9.03;;
6217;SDS011;3142;48.206;11.550;2023-12-07T09:05:18;17.50;;;9.33;;
6217;SDS011;3142;48.206;11.550;2023-12-07T09:07:44;12.03;;;8.43;;
6217;SDS011;3142;48.206;11.550;2023-12-07T09:10:11;18.57;;;8.87;;
6217;SDS011;3142;48.206;11.550;2023-12-07T09:12:37;14.17;;;8.83;;
6217;SDS011;3142;48.206;11.550;2023-12-07T09:15:04;11.67;;;7.97;;
6217;SDS011;3142;48.206;11.550;2023-12-07T09:17:32;12.87;;;8.30;;
6217;SDS011;3142;48.206;11.550;2023-12-07T09:20:00;12.03;;;8.33;;
6217;SDS011;3142;48.206;11.550;2023-12-07T09:22:26;12.70;;;8.33;;
6217;SDS011;3142;48.206;11.550;2023-12-07T09:24:53;11.37;;;8.70;;
6217;SDS011;3142;48.206;11.550;2023-12-07T09:27:19;10.37;;;8.27;;
6217;SDS011;3142;48.206;11.550;2023-12-07T09:29:45;12.13;;;8.80;;
6217;SDS011;3142;48.206;11.550;2023-12-07T09:32:12;10.87;;;8.10;;
6217;SDS011;3142;48.206;11.550;2023-12-07T09:34:39;12.77;;;8.07;;
6217;SDS011;3142;48.206;11.550;2023-12-07T09:37:07;18.70;;;12.17;;
6217;SDS011;3142;48.206;11.550;2023-12-07T09:39:34;10.13;;;7.30;;
6217;SDS011;3142;48.206;11.550;2023-12-07T09:42:00;12.80;;;8.90;;
6217;SDS011;3142;48.206;11.550;2023-12-07T09:44:27;9.60;;;6.70;;
6217;SDS011;3142;48.206;11.550;2023-12-07T09:46:54;12.43;;;7.20;;
6217;SDS011;3142;48.206;11.550;2023-12-07T09:49:20;10.93;;;7.47;;
6217;SDS011;3142;48.206;11.550;2023-12-07T09:51:47;55.67;;;32.70;;
6217;SDS011;3142;48.206;11.550;2023-12-07T09:54:16;47.40;;;34.17;;
6217;SDS011;3142;48.206;11.550;2023-12-07T09:56:45;18.90;;;11.37;;
6217;SDS011;3142;48.206;11.550;2023-12-07T09:59:11;17.50;;;10.07;;
6217;SDS011;3142;48.206;11.550;2023-12-07T10:01:38;15.23;;;9.30;;
6217;SDS011;3142;48.206;11.550;2023-12-07T10:04:17;9.80;;;7.53;;
6217;SDS011;3142;48.206;11.550;2023-12-07T10:06:45;12.30;;;6.80;;
6217;SDS011;3142;48.206;11.550;2023-12-07T10:09:12;10.77;;;7.10;;
6217;SDS011;3142;48.206;11.550;2023-12-07T10:11:41;10.47;;;8.47;;
6217;SDS011;3142;48.206;11.550;2023-12-07T10:14:08;10.57;;;8.13;;
6217;SDS011;3142;48.206;11.550;2023-12-07T10:16:35;11.80;;;8.03;;
6217;SDS011;3142;48.206;11.550;2023-12-07T10:19:12;12.33;;;6.80;;
6217;SDS011;3142;48.206;11.550;2023-12-07T10:21:39;11.37;;;7.33;;
6217;SDS011;3142;48.206;11.550;2023-12-07T10:24:06;11.47;;;7.33;;
6217;SDS011;3142;48.206;11.550;2023-12-07T10:26:33;7.47;;;6.20;;
6217;SDS011;3142;48.206;11.550;2023-12-07T10:29:02;8.37;;;6.23;;
6217;SDS011;3142;48.206;11.550;2023-12-07T10:31:30;9.00;;;6.60;;
6217;SDS011;3142;48.206;11.550;2023-12-07T10:33:57;11.93;;;6.57;;
6217;SDS011;3142;48.206;11.550;2023-12-07T10:36:24;9.00;;;6.63;;
6217;SDS011;3142;48.206;11.550;2023-12-07T10:38:51;7.77;;;6.40;;
6217;SDS011;3142;48.206;11.550;2023-12-07T10:41:18;7.07;;;6.00;;
6217;SDS011;3142;48.206;11.550;2023-12-07T10:43:48;7.33;;;6.63;;
6217;SDS011;3142;48.206;11.550;2023-12-07T10:46:16;8.37;;;6.20;;
6217;SDS011;3142;48.206;11.550;2023-12-07T10:48:47;9.93;;;7.03;;
6217;SDS011;3142;48.206;11.550;2023-12-07T10:51:16;9.43;;;6.63;;
6217;SDS011;3142;48.206;11.550;2023-12-07T10:53:47;10.00;;;6.57;;
6217;SDS011;3142;48.206;11.550;2023-12-07T10:56:19;6.17;;;5.57;;
6217;SDS011;3142;48.206;11.550;2023-12-07T10:58:51;9.60;;;6.23;;
6217;SDS011;3142;48.206;11.550;2023-12-07T11:01:22;10.93;;;6.47;;
6217;SDS011;3142;48.206;11.550;2023-12-07T11:03:49;7.97;;;5.83;;
6217;SDS011;3142;48.206;11.550;2023-12-07T11:06:17;7.60;;;5.20;;
6217;SDS011;3142;48.206;11.550;2023-12-07T11:08:46;5.23;;;4.43;;
6217;SDS011;3142;48.206;11.550;2023-12-07T11:11:18;8.23;;;5.60;;
6217;SDS011;3142;48.206;11.550;2023-12-07T11:13:49;7.80;;;5.80;;
6217;SDS011;3142;48.206;11.550;2023-12-07T11:16:29;9.13;;;5.87;;
6217;SDS011;3142;48.206;11.550;2023-12-07T11:18:56;6.93;;;5.37;;
6217;SDS011;3142;48.206;11.550;2023-12-07T11:21:23;7.93;;;5.67;;
6217;SDS011;3142;48.206;11.550;2023-12-07T11:23:50;8.90;;;6.13;;
6217;SDS011;3142;48.206;11.550;2023-12-07T11:26:18;7.13;;;5.43;;
6217;SDS011;3142;48.206;11.550;2023-12-07T11:28:45;10.63;;;6.00;;
6217;SDS011;3142;48.206;11.550;2023-12-07T11:31:12;12.73;;;6.83;;
6217;SDS011;3142;48.206;11.550;2023-12-07T11:33:40;7.40;;;5.60;;
6217;SDS011;3142;48.206;11.550;2023-12-07T11:36:08;7.47;;;5.00;;
6217;SDS011;3142;48.206;11.550;2023-12-07T11:38:35;7.60;;;5.00;;
6217;SDS011;3142;48.206;11.550;2023-12-07T11:41:03;6.43;;;5.20;;
6217;SDS011;3142;48.206;11.550;2023-12-07T11:43:41;8.20;;;4.97;;
6217;SDS011;3142;48.206;11.550;2023-12-07T11:46:11;7.50;;;4.83;;
6217;SDS011;3142;48.206;11.550;2023-12-07T11:48:40;6.20;;;5.23;;
6217;SDS011;3142;48.206;11.550;2023-12-07T11:51:12;11.30;;;5.63;;
6217;SDS011;3142;48.206;11.550;2023-12-07T11:53:39;8.03;;;5.23;;
6217;SDS011;3142;48.206;11.550;2023-12-07T11:56:05;8.03;;;5.50;;
6217;SDS011;3142;48.206;11.550;2023-12-07T11:58:35;8.07;;;5.30;;
6217;SDS011;3142;48.206;11.550;2023-12-07T12:01:02;9.20;;;6.00;;
6217;SDS011;3142;48.206;11.550;2023-12-07T12:03:30;8.00;;;6.00;;
6217;SDS011;3142;48.206;11.550;2023-12-07T12:05:59;9.77;;;7.10;;
6217;SDS011;3142;48.206;11.550;2023-12-07T12:08:25;11.17;;;7.70;;
6217;SDS011;3142;48.206;11.550;2023-12-07T12:10:52;23.43;;;15.80;;
6217;SDS011;3142;48.206;11.550;2023-12-07T12:13:25;9.23;;;6.70;;
6217;SDS011;3142;48.206;11.550;2023-12-07T12:15:53;9.07;;;5.63;;
6217;SDS011;3142;48.206;11.550;2023-12-07T12:18:21;8.07;;;5.20;;
6217;SDS011;3142;48.206;11.550;2023-12-07T12:20:49;8.33;;;4.97;;
6217;SDS011;3142;48.206;11.550;2023-12-07T12:23:17;5.17;;;4.00;;
6217;SDS011;3142;48.206;11.550;2023-12-07T12:25:44;4.33;;;2.80;;
6217;SDS011;3142;48.206;11.550;2023-12-07T12:28:11;3.17;;;2.50;;
6217;SDS011;3142;48.206;11.550;2023-12-07T12:30:42;7.17;;;5.70;;
6217;SDS011;3142;48.206;11.550;2023-12-07T12:33:09;16.30;;;11.07;;
6217;SDS011;3142;48.206;11.550;2023-12-07T12:35:35;46.93;;;30.60;;
6217;SDS011;3142;48.206;11.550;2023-12-07T12:38:02;7.27;;;4.73;;
6217;SDS011;3142;48.206;11.550;2023-12-07T12:40:36;5.47;;;3.30;;
6217;SDS011;3142;48.206;11.550;2023-12-07T12:43:03;3.10;;;2.80;;
6217;SDS011;3142;48.206;11.550;2023-12-07T12:45:31;4.03;;;2.70;;
6217;SDS011;3142;48.206;11.550;2023-12-07T12:47:58;5.47;;;2.63;;
6217;SDS011;3142;48.206;11.550;2023-12-07T12:50:35;3.10;;;2.70;;
6217;SDS011;3142;48.206;11.550;2023-12-07T12:53:03;3.57;;;2.87;;
6217;SDS011;3142;48.206;11.550;2023-12-07T12:55:32;3.40;;;2.53;;
6217;SDS011;3142;48.206;11.550;2023-12-07T12:58:01;2.87;;;2.57;;
6217;SDS011;3142;48.206;11.550;2023-12-07T13:00:29;2.67;;;2.30;;
6217;SDS011;3142;48.206;11.550;2023-12-07T13:02:57;3.47;;;2.43;;
6217;SDS011;3142;48.206;11.550;2023-12-07T13:05:24;3.43;;;2.07;;
6217;SDS011;3142;48.206;11.550;2023-12-07T13:07:51;4.27;;;3.07;;
6217;SDS011;3142;48.206;11.550;2023-12-07T13:10:18;4.13;;;2.73;;
6217;SDS011;3142;48.206;11.550;2023-12-07T13:12:45;4.27;;;2.77;;
6217;SDS011;3142;48.206;11.550;2023-12-07T13:15:13;3.00;;;2.40;;
6217;SDS011;3142;48.206;11.550;2023-12-07T13:17:40;3.03;;;2.50;;
6217;SDS011;3142;48.206;11.550;2023-12-07T13:20:07;4.40;;;3.00;;
6217;SDS011;3142;48.206;11.550;2023-12-07T13:22:36;2.77;;;2.50;;
6217;SDS011;3142;48.206;11.550;2023-12-07T13:25:03;3.97;;;2.47;;
6217;SDS011;3142;48.206;11.550;2023-12-07T13:27:31;3.80;;;3.03;;
6217;SDS011;3142;48.206;11.550;2023-12-07T13:29:58;5.83;;;3.10;;
6217;SDS011;3142;48.206;11.550;2023-12-07T13:32:26;4.40;;;3.13;;
6217;SDS011;3142;48.206;11.550;2023-12-07T13:34:52;3.20;;;2.90;;
6217;SDS011;3142;48.206;11.550;2023-12-07T13:37:19;3.03;;;2.53;;
6217;SDS011;3142;48.206;11.550;2023-12-07T13:39:46;5.97;;;2.80;;
6217;SDS011;3142;48.206;11.550;2023-12-07T13:42:17;4.97;;;3.20;;
6217;SDS011;3142;48.206;11.550;2023-12-07T13:44:44;5.50;;;2.63;;
6217;SDS011;3142;48.206;11.550;2023-12-07T13:47:10;8.67;;;3.27;;
6217;SDS011;3142;48.206;11.550;2023-12-07T13:49:38;7.50;;;2.90;;
6217;SDS011;3142;48.206;11.550;2023-12-07T13:52:05;3.83;;;2.60;;
6217;SDS011;3142;48.206;11.550;2023-12-07T13:54:32;5.07;;;3.37;;
6217;SDS011;3142;48.206;11.550;2023-12-07T13:56:58;4.83;;;3.60;;
6217;SDS011;3142;48.206;11.550;2023-12-07T13:59:25;4.57;;;3.17;;
6217;SDS011;3142;48.206;11.550;2023-12-07T14:01:51;6.00;;;2.67;;
6217;SDS011;3142;48.206;11.550;2023-12-07T14:04:19;6.83;;;3.73;;
6217;SDS011;3142;48.206;11.550;2023-12-07T14:06:47;5.23;;;3.37;;
6217;SDS011;3142;48.206;11.550;2023-12-07T14:09:13;4.83;;;3.60;;
6217;SDS011;3142;48.206;11.550;2023-12-07T14:11:40;5.40;;;4.47;;
6217;SDS011;3142;48.206;11.550;2023-12-07T14:14:06;6.27;;;4.50;;
6217;SDS011;3142;48.206;11.550;2023-12-07T14:16:32;5.33;;;4.53;;
6217;SDS011;3142;48.206;11.550;2023-12-07T14:18:59;7.20;;;4.93;;
6217;SDS011;3142;48.206;11.550;2023-12-07T14:21:25;5.70;;;4.33;;
6217;SDS011;3142;48.206;11.550;2023-12-07T14:23:53;7.30;;;5.23;;
6217;SDS011;3142;48.206;11.550;2023-12-07T14:26:20;6.33;;;5.13;;
6217;SDS011;3142;48.206;11.550;2023-12-07T14:28:46;6.43;;;4.97;;
6217;SDS011;3142;48.206;11.550;2023-12-07T14:31:13;6.50;;;5.13;;
6217;SDS011;3142;48.206;11.550;2023-12-07T14:33:41;6.13;;;5.43;;
6217;SDS011;3142;48.206;11.550;2023-12-07T14:36:10;6.87;;;5.57;;
6217;SDS011;3142;48.206;11.550;2023-12-07T14:38:37;7.77;;;5.67;;
6217;SDS011;3142;48.206;11.550;2023-12-07T14:41:06;7.23;;;5.50;;
6217;SDS011;3142;48.206;11.550;2023-12-07T14:43:33;8.30;;;5.93;;
6217;SDS011;3142;48.206;11.550;2023-12-07T14:45:59;10.13;;;7.67;;
6217;SDS011;3142;48.206;11.550;2023-12-07T14:48:27;15.97;;;11.03;;